createdAt,value
2018-07-24T00:01:12.722Z,527.03
2018-07-24T00:03:39.830Z,527.87
2018-07-24T00:06:06.970Z,531.10
2018-07-24T00:08:34.127Z,528.97
2018-07-24T00:11:01.325Z,531.00
2018-07-24T00:13:28.698Z,534.23
2018-07-24T00:15:55.862Z,528.13
2018-07-24T00:18:22.994Z,525.77
2018-07-24T00:20:50.158Z,533.03
2018-07-24T00:23:17.399Z,530.30
2018-07-24T00:25:44.538Z,527.60
2018-07-24T00:28:11.670Z,528.83
2018-07-24T00:30:38.822Z,531.97
2018-07-24T00:33:05.950Z,528.47
2018-07-24T00:35:33.090Z,526.40
2018-07-24T00:38:00.482Z,526.33
2018-07-24T00:40:27.610Z,529.87
2018-07-24T00:42:54.746Z,525.67
2018-07-24T00:45:21.894Z,526.07
2018-07-24T00:47:49.042Z,525.33
2018-07-24T00:50:16.170Z,522.40
2018-07-24T00:52:43.298Z,522.07
2018-07-24T00:55:10.422Z,522.60
2018-07-24T00:57:37.565Z,526.60
2018-07-24T01:00:04.754Z,526.63
2018-07-24T01:02:31.893Z,524.60
2018-07-24T01:04:59.041Z,520.40
2018-07-24T01:07:30.798Z,526.33
2018-07-24T01:09:57.977Z,527.30
2018-07-24T01:12:25.153Z,527.10
2018-07-24T01:14:52.311Z,522.47
2018-07-24T01:17:19.461Z,522.53
2018-07-24T01:19:46.626Z,535.60
2018-07-24T01:22:13.797Z,527.10
2018-07-24T01:24:41.985Z,522.23
2018-07-24T01:27:09.269Z,526.27
2018-07-24T01:29:36.446Z,525.53
2018-07-24T01:32:03.624Z,521.57
2018-07-24T01:34:30.769Z,525.03
2018-07-24T01:36:57.930Z,523.40
2018-07-24T01:39:25.085Z,519.77
2018-07-24T01:41:52.245Z,526.40
2018-07-24T01:44:19.777Z,522.60
2018-07-24T01:46:46.943Z,525.90
2018-07-24T01:49:14.104Z,519.27
2018-07-24T01:51:41.274Z,521.57
2018-07-24T01:54:08.430Z,518.27
2018-07-24T01:56:35.569Z,523.20
2018-07-24T01:59:02.730Z,517.63
2018-07-24T02:01:29.889Z,524.47
2018-07-24T02:03:57.037Z,517.83
2018-07-24T02:06:24.205Z,520.33
2018-07-24T02:08:51.385Z,519.33
2018-07-24T02:11:18.558Z,516.63
2018-07-24T02:13:45.726Z,514.00
2018-07-24T02:16:12.882Z,522.90
2018-07-24T02:18:40.051Z,519.83
2018-07-24T02:21:07.253Z,518.10
2018-07-24T02:23:34.433Z,515.97
2018-07-24T02:26:01.718Z,513.77
2018-07-24T02:28:28.881Z,514.07
2018-07-24T02:30:56.046Z,517.40
2018-07-24T02:33:23.223Z,516.50
2018-07-24T02:35:50.405Z,518.50
2018-07-24T02:38:17.569Z,518.47
2018-07-24T02:40:44.719Z,518.73
2018-07-24T02:43:11.879Z,521.27
2018-07-24T02:45:39.109Z,515.10
2018-07-24T02:48:06.334Z,516.77
2018-07-24T02:50:33.497Z,515.37
2018-07-24T02:53:00.667Z,521.00
2018-07-24T02:55:27.838Z,515.93
2018-07-24T02:57:55.010Z,520.17
2018-07-24T03:00:22.176Z,517.27
2018-07-24T03:02:49.530Z,519.37
2018-07-24T03:05:16.822Z,517.33
2018-07-24T03:07:43.979Z,514.60
2018-07-24T03:10:11.142Z,518.93
2018-07-24T03:12:38.301Z,513.80
2018-07-24T03:15:05.512Z,519.50
2018-07-24T03:17:32.668Z,513.00
2018-07-24T03:19:59.829Z,518.87
2018-07-24T03:22:26.985Z,514.73
2018-07-24T03:24:54.149Z,514.73
2018-07-24T03:27:21.389Z,520.70
2018-07-24T03:29:48.558Z,516.80
2018-07-24T03:32:15.769Z,515.27
2018-07-24T03:34:43.233Z,521.07
2018-07-24T03:37:10.390Z,517.23
2018-07-24T03:39:37.597Z,512.27
2018-07-24T03:42:04.789Z,513.37
2018-07-24T03:44:31.962Z,519.77
2018-07-24T03:46:59.135Z,512.63
2018-07-24T03:49:26.325Z,514.67
2018-07-24T03:51:53.485Z,517.60
2018-07-24T03:54:20.640Z,517.17
2018-07-24T03:56:47.865Z,514.10
2018-07-24T03:59:15.029Z,519.57
2018-07-24T04:01:42.211Z,516.87
2018-07-24T04:04:09.390Z,516.37
2018-07-24T04:06:36.557Z,513.67
2018-07-24T04:09:06.250Z,517.67
2018-07-24T04:11:33.414Z,516.83
2018-07-24T04:14:00.582Z,514.30
2018-07-24T04:16:27.832Z,515.33
2018-07-24T04:18:55.013Z,513.63
2018-07-24T04:21:22.211Z,516.73
2018-07-24T04:23:49.372Z,515.73
2018-07-24T04:26:17.021Z,514.00
2018-07-24T04:28:45.112Z,518.33
2018-07-24T04:31:13.036Z,520.50
2018-07-24T04:33:40.633Z,519.97
2018-07-24T04:36:07.792Z,518.07
2018-07-24T04:38:34.984Z,519.20
2018-07-24T04:41:02.357Z,516.30
2018-07-24T04:43:29.514Z,518.77
2018-07-24T04:45:56.721Z,520.20
2018-07-24T04:48:24.048Z,514.03
2018-07-24T04:50:51.282Z,517.07
2018-07-24T04:53:18.437Z,518.73
2018-07-24T04:55:45.603Z,514.10
2018-07-24T04:58:12.767Z,516.70
2018-07-24T05:00:40.009Z,518.23
2018-07-24T05:03:07.194Z,521.03
2018-07-24T05:05:34.334Z,516.53
2018-07-24T05:08:01.502Z,517.13
2018-07-24T05:10:28.985Z,517.93
2018-07-24T05:12:56.261Z,523.90
2018-07-24T05:15:23.405Z,521.07
2018-07-24T05:17:50.529Z,520.67
2018-07-24T05:20:17.672Z,520.67
2018-07-24T05:22:44.793Z,520.70
2018-07-24T05:25:11.965Z,523.17
2018-07-24T05:27:39.084Z,523.00
2018-07-24T05:30:06.381Z,521.33
2018-07-24T05:32:33.505Z,524.27
2018-07-24T05:35:00.633Z,526.00
2018-07-24T05:37:27.765Z,531.40
2018-07-24T05:39:54.909Z,524.43
2018-07-24T05:42:22.065Z,525.77
2018-07-24T05:44:49.202Z,527.20
2018-07-24T05:47:16.334Z,524.87
2018-07-24T05:49:43.721Z,524.10
2018-07-24T05:52:10.866Z,527.17
2018-07-24T05:54:38.106Z,529.10
2018-07-24T05:57:05.295Z,527.77
2018-07-24T05:59:32.424Z,526.63
2018-07-24T06:01:59.679Z,526.27
2018-07-24T06:04:26.774Z,533.73
2018-07-24T06:06:53.953Z,531.10
2018-07-24T06:09:21.129Z,531.73
2018-07-24T06:11:48.317Z,529.20
2018-07-24T06:14:15.483Z,528.40
2018-07-24T06:16:42.733Z,532.00
2018-07-24T06:19:09.822Z,527.30
2018-07-24T06:21:37.012Z,531.07
2018-07-24T06:24:04.192Z,532.17
2018-07-24T06:26:31.349Z,534.47
2018-07-24T06:28:58.497Z,536.13
2018-07-24T06:31:25.681Z,533.63
2018-07-24T06:33:52.834Z,538.03
2018-07-24T06:36:19.994Z,534.37
2018-07-24T06:38:47.154Z,538.83
2018-07-24T06:41:14.328Z,535.27
2018-07-24T06:43:41.478Z,543.20
2018-07-24T06:46:08.635Z,539.47
2018-07-24T06:48:35.801Z,540.20
2018-07-24T06:51:02.981Z,539.23
2018-07-24T06:53:30.150Z,541.83
2018-07-24T06:55:57.332Z,544.23
2018-07-24T06:58:24.570Z,545.40
2018-07-24T07:00:51.738Z,545.73
2018-07-24T07:03:18.959Z,550.57
2018-07-24T07:05:46.086Z,564.57
2018-07-24T07:08:13.245Z,575.97
2018-07-24T07:10:40.398Z,576.40
2018-07-24T07:13:07.601Z,582.87
2018-07-24T07:15:35.111Z,612.70
2018-07-24T07:18:02.311Z,666.93
2018-07-24T07:20:29.544Z,684.27
2018-07-24T07:22:56.664Z,706.40
2018-07-24T07:25:23.818Z,740.07
2018-07-24T07:27:50.973Z,724.07
2018-07-24T07:30:18.187Z,756.27
2018-07-24T07:32:45.374Z,765.60
2018-07-24T07:35:12.542Z,784.20
2018-07-24T07:37:39.716Z,772.70
2018-07-24T07:40:06.905Z,799.00
2018-07-24T07:42:34.186Z,808.80
2018-07-24T07:45:01.362Z,826.27
2018-07-24T07:47:28.520Z,826.33
2018-07-24T07:49:55.673Z,805.13
2018-07-24T07:52:22.880Z,817.77
2018-07-24T07:54:50.027Z,848.37
2018-07-24T07:57:17.214Z,805.73
2018-07-24T07:59:44.426Z,861.77
2018-07-24T08:02:11.565Z,846.80
2018-07-24T08:04:38.725Z,847.20
2018-07-24T08:07:05.870Z,829.00
2018-07-24T08:09:33.026Z,846.47
2018-07-24T08:12:00.183Z,843.17
2018-07-24T08:14:27.337Z,832.47
2018-07-24T08:16:54.469Z,805.87
2018-07-24T08:19:21.606Z,810.50
2018-07-24T08:21:48.777Z,828.80
2018-07-24T08:24:15.988Z,813.57
2018-07-24T08:26:43.145Z,807.10
2018-07-24T08:29:10.534Z,823.93
2018-07-24T08:31:37.679Z,831.87
2018-07-24T08:34:04.873Z,828.50
2018-07-24T08:36:32.081Z,809.73
2018-07-24T08:38:59.234Z,816.03
2018-07-24T08:41:26.418Z,834.43
2018-07-24T08:43:53.548Z,844.47
2018-07-24T08:46:21.017Z,804.10
2018-07-24T08:48:48.158Z,865.83
2018-07-24T08:51:15.289Z,797.90
2018-07-24T08:53:42.893Z,825.27
2018-07-24T08:56:09.649Z,869.63
2018-07-24T08:58:36.785Z,810.77
2018-07-24T09:01:03.966Z,826.10
2018-07-24T09:03:31.172Z,823.43
2018-07-24T09:05:58.265Z,822.20
2018-07-24T09:08:25.402Z,812.53
2018-07-24T09:10:52.565Z,822.47
2018-07-24T09:13:19.691Z,823.77
2018-07-24T09:15:46.828Z,869.23
2018-07-24T09:18:13.953Z,841.50
2018-07-24T09:20:41.088Z,850.73
2018-07-24T09:23:08.378Z,834.53
2018-07-24T09:25:35.513Z,873.60
2018-07-24T09:28:02.669Z,848.77
2018-07-24T09:30:29.864Z,852.87
2018-07-24T09:32:56.995Z,864.93
2018-07-24T09:35:24.136Z,851.80
2018-07-24T09:37:51.297Z,831.57
2018-07-24T09:40:18.781Z,812.33
2018-07-24T09:42:45.885Z,809.17
2018-07-24T09:45:13.018Z,822.33
2018-07-24T09:47:40.154Z,829.13
2018-07-24T09:50:07.321Z,846.50
2018-07-24T09:52:34.481Z,841.80
2018-07-24T09:55:01.666Z,814.33
2018-07-24T09:57:28.813Z,839.30
2018-07-24T09:59:55.945Z,832.80
2018-07-24T10:02:23.099Z,825.17
2018-07-24T10:04:50.237Z,821.33
2018-07-24T10:07:17.428Z,843.07
2018-07-24T10:09:44.549Z,861.97
2018-07-24T10:12:11.756Z,836.43
2018-07-24T10:14:38.841Z,851.73
2018-07-24T10:17:05.993Z,843.87
2018-07-24T10:19:33.130Z,838.73
2018-07-24T10:22:00.266Z,827.60
2018-07-24T10:24:27.463Z,817.23
2018-07-24T10:26:54.601Z,885.97
2018-07-24T10:29:21.854Z,850.60
2018-07-24T10:31:49.103Z,825.60
2018-07-24T10:34:16.246Z,833.50
2018-07-24T10:36:43.408Z,832.13
2018-07-24T10:39:11.331Z,823.53
2018-07-24T10:41:38.482Z,841.90
2018-07-24T10:44:05.633Z,855.27
2018-07-24T10:46:32.777Z,831.37
2018-07-24T10:48:59.908Z,845.13
2018-07-24T10:51:27.081Z,859.00
2018-07-24T10:53:54.254Z,878.10
2018-07-24T10:56:21.420Z,871.87
2018-07-24T10:58:48.573Z,894.50
2018-07-24T11:01:15.749Z,859.87
2018-07-24T11:03:42.932Z,833.40
2018-07-24T11:06:10.113Z,824.00
2018-07-24T11:08:37.286Z,825.50
2018-07-24T11:11:04.475Z,879.20
2018-07-24T11:13:31.635Z,818.67
2018-07-24T11:15:58.793Z,817.63
2018-07-24T11:18:25.945Z,813.13
2018-07-24T11:20:53.118Z,781.60
2018-07-24T11:23:20.358Z,813.07
2018-07-24T11:25:47.446Z,792.83
2018-07-24T11:28:14.655Z,812.13
2018-07-24T11:30:41.790Z,814.60
2018-07-24T11:33:09.084Z,802.33
2018-07-24T11:35:36.367Z,816.87
2018-07-24T11:38:03.397Z,802.73
2018-07-24T11:40:30.586Z,805.50
2018-07-24T11:42:57.763Z,803.67
2018-07-24T11:45:24.932Z,791.27
2018-07-24T11:47:52.102Z,862.73
2018-07-24T11:50:19.274Z,824.07
2018-07-24T11:52:46.452Z,855.77
2018-07-24T11:55:13.606Z,867.03
2018-07-24T11:57:40.818Z,841.37
2018-07-24T12:00:07.997Z,874.43
2018-07-24T12:02:35.174Z,855.18
2018-07-24T12:05:02.353Z,843.50
2018-07-24T12:07:29.514Z,824.33
2018-07-24T12:09:56.687Z,855.27
2018-07-24T12:12:23.853Z,839.52
2018-07-24T12:14:51.052Z,833.67
2018-07-24T12:17:18.201Z,840.27
2018-07-24T12:19:45.374Z,849.40
2018-07-24T12:22:12.548Z,852.07
2018-07-24T12:24:39.710Z,828.43
2018-07-24T12:27:06.904Z,828.80
2018-07-24T12:29:34.068Z,818.40
2018-07-24T12:32:01.251Z,859.10
2018-07-24T12:34:28.454Z,810.73
2018-07-24T12:36:55.626Z,813.43
2018-07-24T12:39:22.805Z,849.93
2018-07-24T12:41:49.981Z,868.93
2018-07-24T12:44:17.154Z,868.50
2018-07-24T12:46:44.325Z,868.73
2018-07-24T12:49:11.501Z,846.13
2018-07-24T12:51:38.690Z,852.40
2018-07-24T12:54:05.865Z,867.03
2018-07-24T12:56:33.029Z,859.25
2018-07-24T12:59:00.195Z,863.50
2018-07-24T13:01:27.366Z,856.02
2018-07-24T13:03:54.524Z,846.50
2018-07-24T13:06:21.761Z,858.02
2018-07-24T13:08:48.954Z,827.73
2018-07-24T13:11:16.120Z,829.40
2018-07-24T13:13:43.272Z,843.00
2018-07-24T13:16:10.479Z,854.25
2018-07-24T13:18:37.665Z,822.13
2018-07-24T13:21:04.842Z,839.87
2018-07-24T13:23:32.010Z,825.17
2018-07-24T13:25:59.185Z,831.90
2018-07-24T13:28:26.345Z,797.97
2018-07-24T13:30:53.502Z,813.57
2018-07-24T13:33:20.683Z,798.30
2018-07-24T13:35:47.999Z,778.50
2018-07-24T13:38:15.166Z,792.50
2018-07-24T13:40:42.327Z,804.00
2018-07-24T13:43:09.729Z,828.93
2018-07-24T13:45:36.894Z,803.40
2018-07-24T13:48:04.069Z,811.60
2018-07-24T13:50:31.235Z,842.90
2018-07-24T13:52:58.457Z,851.10
2018-07-24T13:55:25.616Z,850.63
2018-07-24T13:57:52.789Z,851.63
2018-07-24T14:00:19.959Z,827.00
2018-07-24T14:02:47.085Z,835.77
2018-07-24T14:05:14.224Z,813.30
2018-07-24T14:07:41.521Z,805.03
2018-07-24T14:10:08.675Z,780.80
2018-07-24T14:12:35.797Z,776.03
2018-07-24T14:15:03.003Z,750.23
2018-07-24T14:17:30.141Z,767.03
2018-07-24T14:19:57.281Z,762.63
2018-07-24T14:22:24.403Z,764.80
2018-07-24T14:24:51.561Z,818.60
2018-07-24T14:27:18.816Z,826.90
2018-07-24T14:29:46.022Z,811.10
2018-07-24T14:32:13.161Z,836.40
2018-07-24T14:34:40.454Z,822.23
2018-07-24T14:37:07.605Z,820.40
2018-07-24T14:39:34.825Z,822.00
2018-07-24T14:42:01.986Z,838.90
2018-07-24T14:44:29.109Z,843.43
2018-07-24T14:46:56.258Z,825.13
2018-07-24T14:49:23.400Z,829.63
2018-07-24T14:51:50.529Z,835.57
2018-07-24T14:54:17.670Z,819.67
2018-07-24T14:56:44.842Z,837.17
2018-07-24T14:59:11.985Z,833.20
2018-07-24T15:01:39.158Z,825.13
2018-07-24T15:04:06.717Z,848.17
2018-07-24T15:06:33.934Z,828.63
2018-07-24T15:09:01.046Z,806.27
2018-07-24T15:11:28.208Z,846.17
2018-07-24T15:13:55.406Z,821.97
2018-07-24T15:16:22.598Z,834.00
2018-07-24T15:18:49.753Z,845.40
2018-07-24T15:21:16.921Z,816.03
2018-07-24T15:23:44.077Z,839.90
2018-07-24T15:26:11.248Z,847.03
2018-07-24T15:28:38.435Z,819.57
2018-07-24T15:31:05.619Z,813.13
2018-07-24T15:33:32.781Z,856.03
2018-07-24T15:35:59.964Z,804.57
2018-07-24T15:38:27.157Z,819.87
2018-07-24T15:40:54.469Z,789.37
2018-07-24T15:43:21.633Z,809.33
2018-07-24T15:45:48.830Z,810.23
2018-07-24T15:48:15.997Z,782.37
2018-07-24T15:50:43.146Z,799.43
2018-07-24T15:53:10.442Z,752.90
2018-07-24T15:55:37.610Z,770.20
2018-07-24T15:58:05.036Z,738.10
2018-07-24T16:00:32.126Z,755.70
2018-07-24T16:02:59.462Z,776.33
2018-07-24T16:05:26.605Z,811.90
2018-07-24T16:07:53.914Z,755.60
2018-07-24T16:10:21.134Z,761.23
2018-07-24T16:12:48.297Z,765.40
2018-07-24T16:15:15.490Z,780.93
2018-07-24T16:17:42.681Z,766.47
2018-07-24T16:20:09.848Z,801.23
2018-07-24T16:22:37.034Z,802.53
2018-07-24T16:25:04.569Z,763.53
2018-07-24T16:27:31.798Z,785.00
2018-07-24T16:29:59.032Z,787.00
2018-07-24T16:32:26.281Z,776.67
2018-07-24T16:34:53.401Z,803.53
2018-07-24T16:37:20.693Z,795.90
2018-07-24T16:39:47.921Z,801.40
2018-07-24T16:42:15.058Z,785.10
2018-07-24T16:44:42.226Z,797.40
2018-07-24T16:47:09.445Z,813.57
2018-07-24T16:49:36.645Z,766.90
2018-07-24T16:52:03.817Z,793.67
2018-07-24T16:54:31.094Z,811.27
2018-07-24T16:56:58.291Z,794.80
2018-07-24T16:59:25.459Z,788.27
2018-07-24T17:01:52.708Z,785.17
2018-07-24T17:04:20.081Z,770.20
2018-07-24T17:06:47.357Z,794.50
2018-07-24T17:09:14.506Z,770.77
2018-07-24T17:11:41.645Z,780.47
2018-07-24T17:14:08.810Z,763.93
2018-07-24T17:16:36.102Z,765.87
2018-07-24T17:19:03.245Z,801.57
2018-07-24T17:21:30.428Z,793.13
2018-07-24T17:23:57.624Z,826.00
2018-07-24T17:26:24.800Z,789.23
2018-07-24T17:28:51.914Z,759.87
2018-07-24T17:31:19.147Z,782.50
2018-07-24T17:33:46.310Z,765.33
2018-07-24T17:36:13.450Z,773.83
2018-07-24T17:38:40.585Z,744.63
2018-07-24T17:41:07.718Z,748.67
2018-07-24T17:43:34.857Z,746.80
2018-07-24T17:46:01.981Z,701.00
2018-07-24T17:48:29.319Z,733.13
2018-07-24T17:50:57.844Z,686.00
2018-07-24T17:53:25.227Z,661.20
2018-07-24T17:55:52.358Z,646.43
2018-07-24T17:58:19.497Z,641.30
2018-07-24T18:00:46.657Z,644.53
2018-07-24T18:03:14.632Z,627.93
2018-07-24T18:05:41.905Z,586.23
2018-07-24T18:08:09.081Z,618.53
2018-07-24T18:10:36.280Z,588.30
2018-07-24T18:13:03.422Z,586.70
2018-07-24T18:15:30.711Z,584.33
2018-07-24T18:17:57.816Z,584.33
2018-07-24T18:20:24.932Z,580.03
2018-07-24T18:22:52.054Z,589.57
2018-07-24T18:25:19.193Z,587.53
2018-07-24T18:27:46.460Z,576.70
2018-07-24T18:30:13.729Z,582.50
2018-07-24T18:32:40.852Z,582.10
2018-07-24T18:35:08.185Z,579.73
2018-07-24T18:37:35.346Z,580.30
2018-07-24T18:40:02.574Z,573.67
2018-07-24T18:42:29.755Z,581.93
2018-07-24T18:44:56.978Z,573.80
2018-07-24T18:47:24.301Z,574.10
2018-07-24T18:49:51.514Z,570.43
2018-07-24T18:52:18.764Z,568.70
2018-07-24T18:54:45.898Z,568.23
2018-07-24T18:59:32.340Z,563.00
2018-07-24T19:01:59.537Z,569.20
2018-07-24T19:04:26.760Z,567.53
2018-07-24T19:06:54.035Z,565.43
2018-07-24T19:09:21.248Z,567.30
2018-07-24T19:11:48.604Z,561.40
2018-07-24T19:14:15.832Z,567.17
2018-07-24T19:16:43.083Z,560.20
2018-07-24T19:19:10.338Z,564.23
2018-07-24T19:21:37.669Z,561.53
2018-07-24T19:24:04.995Z,556.50
2018-07-24T19:26:32.257Z,562.57
2018-07-24T19:28:59.658Z,562.83
2018-07-24T19:31:27.358Z,561.07
2018-07-24T19:33:54.738Z,557.63
2018-07-24T19:36:21.952Z,555.57
2018-07-24T19:38:49.136Z,560.23
2018-07-24T19:41:16.339Z,557.27
2018-07-24T19:43:43.597Z,558.07
2018-07-24T19:46:11.076Z,553.00
2018-07-24T19:48:38.576Z,559.53
2018-07-24T19:51:06.155Z,558.00
2018-07-24T19:53:33.335Z,553.30
2018-07-24T19:56:00.795Z,555.03
2018-07-24T19:58:27.994Z,557.87
2018-07-24T20:00:55.212Z,553.70
2018-07-24T20:03:22.419Z,554.47
2018-07-24T20:05:49.620Z,555.17
2018-07-24T20:08:16.987Z,556.47
2018-07-24T20:10:44.167Z,560.97
2018-07-24T20:13:11.389Z,551.10
2018-07-24T20:15:38.567Z,545.93
2018-07-24T20:18:05.758Z,547.57
2018-07-24T20:20:32.970Z,546.33
2018-07-24T20:23:00.214Z,553.43
2018-07-24T20:25:27.397Z,545.87
2018-07-24T20:27:54.587Z,549.20
2018-07-24T20:30:21.896Z,547.87
2018-07-24T20:32:49.212Z,550.37
2018-07-24T20:35:16.496Z,552.23
2018-07-24T20:37:43.739Z,543.63
2018-07-24T20:40:10.947Z,549.73
2018-07-24T20:42:38.155Z,542.17
2018-07-24T20:45:05.515Z,549.63
2018-07-24T20:47:32.707Z,542.53
2018-07-24T20:50:00.107Z,541.63
2018-07-24T20:52:27.298Z,542.57
2018-07-24T20:54:54.507Z,545.70
2018-07-24T20:57:21.709Z,545.17
2018-07-24T20:59:48.895Z,547.90
2018-07-24T21:02:16.099Z,548.53
2018-07-24T21:04:43.295Z,546.93
2018-07-24T21:07:10.518Z,547.03
2018-07-24T21:09:37.751Z,546.20
2018-07-24T21:12:04.913Z,555.33
2018-07-24T21:14:32.100Z,537.53
2018-07-24T21:16:59.295Z,544.93
2018-07-24T21:19:26.480Z,540.37
2018-07-24T21:21:53.702Z,539.63
2018-07-24T21:24:20.884Z,541.90
2018-07-24T21:26:48.075Z,543.53
2018-07-24T21:29:15.258Z,538.23
2018-07-24T21:31:42.451Z,540.47
2018-07-24T21:34:09.647Z,539.93
2018-07-24T21:36:36.840Z,540.77
2018-07-24T21:39:06.971Z,543.10
2018-07-24T21:41:34.155Z,538.00
2018-07-24T21:44:01.336Z,536.20
2018-07-24T21:46:28.527Z,540.37
2018-07-24T21:48:55.832Z,538.67
2018-07-24T21:51:22.958Z,540.73
2018-07-24T21:53:50.139Z,541.73
2018-07-24T21:56:17.327Z,540.03
2018-07-24T21:58:44.519Z,542.73
2018-07-24T22:01:12.754Z,537.93
2018-07-24T22:03:40.235Z,541.27
2018-07-24T22:06:07.806Z,536.60
2018-07-24T22:08:35.189Z,542.77
2018-07-24T22:11:02.419Z,544.97
2018-07-24T22:13:29.655Z,536.67
2018-07-24T22:15:56.874Z,535.87
2018-07-24T22:18:24.104Z,536.73
2018-07-24T22:20:51.336Z,540.67
2018-07-24T22:23:18.568Z,541.70
2018-07-24T22:25:45.773Z,548.17
2018-07-24T22:28:13.002Z,535.80
2018-07-24T22:30:40.426Z,536.40
2018-07-24T22:33:07.638Z,541.03
2018-07-24T22:35:34.864Z,544.83
2018-07-24T22:38:02.099Z,534.87
2018-07-24T22:40:29.316Z,539.80
2018-07-24T22:42:56.544Z,538.30
2018-07-24T22:45:23.770Z,536.67
2018-07-24T22:47:50.972Z,538.93
2018-07-24T22:50:18.263Z,543.13
2018-07-24T22:52:45.450Z,538.20
2018-07-24T22:55:12.680Z,536.20
2018-07-24T22:57:39.892Z,537.30
2018-07-24T23:00:07.107Z,538.27
2018-07-24T23:02:34.304Z,536.60
2018-07-24T23:05:01.504Z,543.70
2018-07-24T23:07:28.694Z,542.20
2018-07-24T23:09:55.911Z,540.07
2018-07-24T23:12:23.235Z,536.27
2018-07-24T23:14:50.451Z,535.23
2018-07-24T23:17:17.638Z,544.67
2018-07-24T23:19:44.833Z,532.60
2018-07-24T23:22:12.019Z,539.20
2018-07-24T23:24:39.211Z,536.53
2018-07-24T23:27:06.403Z,533.10
2018-07-24T23:29:33.603Z,533.77
2018-07-24T23:32:00.799Z,536.17
2018-07-24T23:34:28.003Z,533.93
2018-07-24T23:36:55.195Z,535.83
2018-07-24T23:39:22.401Z,536.10
2018-07-24T23:41:49.616Z,530.07
2018-07-24T23:44:16.823Z,538.27
2018-07-24T23:46:44.079Z,531.90
2018-07-24T23:49:11.249Z,528.43
2018-07-24T23:51:38.447Z,527.33
2018-07-24T23:54:05.644Z,524.70
2018-07-24T23:56:32.831Z,528.23
2018-07-24T23:59:00.011Z,534.07
